Terminal Aerodrome Forecast
Issued by NWS Billings, MT

Home | Current Version | Previous Version | Text Only | Print | Product List | Glossary On
Versions: 1 2 3 4 5 6 7 8 9 10 11 12 13 14 15 16 17 18 19 20 21 22 23 24 25 26
000
FTUS45 KBYZ 230108 AAA
TAFSHR
TAF AMD
KSHR 230108Z 2301/2324 31027G37KT P6SM VCSH FEW030 BKN050 OVC100
     FM230500 30012KT P6SM SCT030 BKN100
     FM231600 31022G29KT P6SM BKN100=

USA.gov is the U.S. government's official web portal to all federal, state and local government web resources and services.